Time;durP1;ratioP1;P1;durP2;ratioP2;P2;SDS_P1;SDS_P2;PMS_P1;PMS_P2;Temp;Humidity;BMP_temperature;BMP_pressure;BME280_temperature;BME280_humidity;BME280_pressure;Samples;Min_cycle;Max_cycle;Signal;HPM_P1;HPM_P2
2022/01/07 00:00:13;;;;;;;8.18;3.88;;;;;;;-2.49;84.38;99968.06;5063194;28;20016;-67
2022/01/07 00:02:39;;;;;;;9.65;2.85;;;;;;;-2.47;84.65;99957.94;5063076;28;20031;-67
2022/01/07 00:05:05;;;;;;;13.20;5.80;;;;;;;-2.38;84.67;99959.16;5062776;28;20025;-65
2022/01/07 00:07:30;;;;;;;7.97;3.83;;;;;;;-2.34;84.81;99957.63;5062682;28;20048;-67
2022/01/07 00:09:55;;;;;;;3.65;2.47;;;;;;;-2.28;84.93;99952.75;5062933;28;20085;-66
2022/01/07 00:12:22;;;;;;;8.90;3.67;;;;;;;-2.22;84.79;99946.16;5062822;28;20084;-66
2022/01/07 00:14:48;;;;;;;11.77;4.68;;;;;;;-2.23;84.82;99945.28;5063022;28;20053;-66
2022/01/07 00:17:14;;;;;;;10.20;3.40;;;;;;;-2.21;84.87;99950.44;5062594;28;20584;-66
2022/01/07 00:19:39;;;;;;;9.30;3.97;;;;;;;-2.23;85.24;99950.38;5062974;28;20024;-67
2022/01/07 00:22:05;;;;;;;3.25;2.45;;;;;;;-2.19;85.35;99948.81;5062523;28;20400;-66
2022/01/07 00:24:30;;;;;;;9.95;5.30;;;;;;;-2.19;85.38;99943.72;5064974;28;20021;-66
2022/01/07 00:26:55;;;;;;;11.40;4.10;;;;;;;-2.12;85.44;99940.59;5066596;28;20051;-67
2022/01/07 00:29:21;;;;;;;11.50;4.72;;;;;;;-2.07;85.44;99939.06;5066546;28;20039;-66
2022/01/07 00:31:46;;;;;;;12.57;4.22;;;;;;;-2.02;85.46;99923.97;5066426;28;20017;-65
2022/01/07 00:34:11;;;;;;;8.75;2.67;;;;;;;-1.97;85.35;99919.03;5066449;28;20248;-66
2022/01/07 00:36:37;;;;;;;8.63;3.55;;;;;;;-1.94;85.42;99919.16;5066179;28;20528;-65
2022/01/07 00:39:03;;;;;;;7.05;4.07;;;;;;;-1.93;85.39;99910.72;5066548;28;20029;-66
2022/01/07 00:41:28;;;;;;;8.45;2.78;;;;;;;-1.92;85.49;99917.53;5066398;28;20055;-66
2022/01/07 00:43:54;;;;;;;8.20;4.00;;;;;;;-1.89;85.27;99910.00;5066307;28;20025;-66
2022/01/07 00:46:20;;;;;;;15.45;3.65;;;;;;;-1.91;85.27;99904.00;5066316;28;20025;-66
2022/01/07 00:48:46;;;;;;;8.98;4.15;;;;;;;-1.87;85.33;99904.13;5066338;28;20036;-66
2022/01/07 00:51:11;;;;;;;10.13;2.35;;;;;;;-1.87;85.47;99893.97;5066144;28;20029;-65
2022/01/07 00:53:37;;;;;;;4.57;2.60;;;;;;;-1.85;85.46;99886.38;5066075;28;20021;-66
2022/01/07 00:56:02;;;;;;;6.75;3.38;;;;;;;-1.83;85.64;99887.31;5066035;28;20021;-66
2022/01/07 00:58:28;;;;;;;4.45;2.40;;;;;;;-1.77;85.56;99881.53;5065987;28;20048;-66
2022/01/07 01:00:53;;;;;;;5.95;3.15;;;;;;;-1.75;85.34;99877.38;5066109;28;20036;-66
2022/01/07 01:03:18;;;;;;;7.70;2.72;;;;;;;-1.79;85.52;99871.31;5065829;28;20021;-66
2022/01/07 01:05:45;;;;;;;8.25;2.88;;;;;;;-1.72;85.41;99868.97;5065876;28;20396;-66
2022/01/07 01:08:11;;;;;;;3.55;2.92;;;;;;;-1.73;85.76;99873.22;5065659;28;20025;-67
2022/01/07 01:10:37;;;;;;;7.45;2.97;;;;;;;-1.75;85.71;99860.44;5064593;28;20017;-66
2022/01/07 01:13:03;;;;;;;10.23;3.97;;;;;;;-1.75;86.31;99860.44;5065629;28;20020;-66
2022/01/07 01:15:29;;;;;;;8.48;3.22;;;;;;;-1.64;86.10;99855.69;5065784;28;20163;-67
2022/01/07 01:17:56;;;;;;;5.32;2.58;;;;;;;-1.57;86.44;99858.44;5065504;28;20501;-66
2022/01/07 01:20:23;;;;;;;4.80;3.00;;;;;;;-1.51;86.35;99844.22;5065732;28;20523;-65
2022/01/07 01:22:49;;;;;;;6.70;3.30;;;;;;;-1.52;86.85;99846.72;5065500;28;20052;-65
2022/01/07 01:25:14;;;;;;;4.30;2.35;;;;;;;-1.40;86.57;99848.78;5065656;28;20040;-65
2022/01/07 01:27:40;;;;;;;14.50;3.90;;;;;;;-1.45;86.88;99845.25;5065536;28;20021;-65
2022/01/07 01:30:10;;;;;;;11.75;4.88;;;;;;;-1.51;86.99;99844.22;5065642;28;20059;-66
2022/01/07 01:32:36;;;;;;;8.27;3.42;;;;;;;-1.23;86.38;99844.19;5065382;28;20029;-65
2022/01/07 01:35:04;;;;;;;8.18;3.25;;;;;;;-1.38;86.88;99837.84;5065331;28;20021;-66
2022/01/07 01:37:31;;;;;;;4.72;2.22;;;;;;;-1.35;87.18;99837.06;5064864;28;20033;-66
2022/01/07 01:39:57;;;;;;;14.25;4.53;;;;;;;-1.31;87.14;99830.38;5065495;28;20033;-65
2022/01/07 01:42:23;;;;;;;9.75;3.17;;;;;;;-1.25;86.98;99833.13;5065187;28;20025;-65
2022/01/07 01:44:48;;;;;;;7.35;2.80;;;;;;;-1.27;87.11;99827.97;5065146;28;20036;-66
2022/01/07 01:47:14;;;;;;;6.70;3.72;;;;;;;-1.30;87.36;99816.81;5065135;28;20021;-66
2022/01/07 01:49:39;;;;;;;7.70;3.13;;;;;;;-1.22;87.40;99824.69;5064945;28;20085;-66
2022/01/07 01:52:05;;;;;;;8.60;3.13;;;;;;;-1.28;87.62;99812.66;5064789;28;20024;-66
2022/01/07 01:54:31;;;;;;;9.40;3.55;;;;;;;-1.18;87.43;99821.44;5065023;28;20047;-65
2022/01/07 01:56:56;;;;;;;8.48;3.13;;;;;;;-1.20;87.70;99820.53;5064810;28;20077;-66
2022/01/07 01:59:26;;;;;;;5.65;3.42;;;;;;;-1.19;87.91;99802.72;5065044;28;20025;-65
2022/01/07 02:01:52;;;;;;;11.68;4.60;;;;;;;-1.12;87.97;99801.25;5064797;28;20021;-65
2022/01/07 02:04:17;;;;;;;9.63;3.92;;;;;;;-1.15;88.02;99791.81;5064936;28;20659;-65
2022/01/07 02:06:43;;;;;;;9.38;3.80;;;;;;;-1.00;87.52;99785.44;5064549;28;20496;-65
2022/01/07 02:09:08;;;;;;;13.05;4.05;;;;;;;-1.04;87.95;99792.13;5064682;28;20016;-64
2022/01/07 02:11:34;;;;;;;10.30;3.80;;;;;;;-1.08;88.17;99791.97;5064605;28;20089;-64
2022/01/07 02:13:59;;;;;;;9.63;4.13;;;;;;;-1.05;88.19;99777.66;5063596;28;20109;-64
2022/01/07 02:16:26;;;;;;;9.23;4.05;;;;;;;-1.05;88.53;99780.22;5064714;28;20516;-64
2022/01/07 02:18:52;;;;;;;12.93;4.80;;;;;;;-1.02;88.63;99774.31;5064779;28;20036;-65
2022/01/07 02:21:18;;;;;;;10.80;3.65;;;;;;;-0.88;88.40;99764.53;5064860;28;20025;-65
2022/01/07 02:23:43;;;;;;;10.77;3.67;;;;;;;-0.96;88.65;99764.34;5064381;28;20490;-65
2022/01/07 02:26:10;;;;;;;8.43;3.08;;;;;;;-0.91;88.53;99760.19;5064428;28;20036;-65
2022/01/07 02:28:36;;;;;;;10.75;4.45;;;;;;;-0.80;88.18;99768.16;5064631;28;20366;-65
2022/01/07 02:31:02;;;;;;;6.60;2.35;;;;;;;-0.82;88.60;99759.63;5064465;28;20507;-66
2022/01/07 02:33:28;;;;;;;8.82;3.45;;;;;;;-0.80;88.90;99752.00;5064369;28;20702;-65
2022/01/07 02:35:53;;;;;;;8.27;2.58;;;;;;;-0.79;88.95;99749.50;5063213;28;20464;-64
2022/01/07 02:38:18;;;;;;;14.63;4.47;;;;;;;-0.71;89.04;99746.28;5063770;28;20045;-65
2022/01/07 02:40:44;;;;;;;13.90;4.75;;;;;;;-0.72;89.08;99742.88;5064207;28;20025;-64
2022/01/07 02:43:10;;;;;;;10.57;3.35;;;;;;;-0.70;89.28;99732.72;5064061;28;20529;-64
2022/01/07 02:45:36;;;;;;;5.30;3.60;;;;;;;-0.64;89.29;99736.28;5064133;28;20064;-64
2022/01/07 02:48:03;;;;;;;9.18;3.63;;;;;;;-0.57;88.99;99727.13;5063625;28;20024;-64
2022/01/07 02:50:35;;;;;;;15.63;5.72;;;;;;;-0.61;89.20;99727.00;5064118;28;20020;-63
2022/01/07 02:53:02;;;;;;;15.90;4.57;;;;;;;-0.57;88.97;99722.03;5063901;28;20028;-64
2022/01/07 02:55:27;;;;;;;6.07;3.60;;;;;;;-0.57;89.24;99713.50;5063928;28;20528;-64
2022/01/07 02:57:54;;;;;;;14.82;4.72;;;;;;;-0.54;89.37;99711.03;5063936;28;20025;-64
2022/01/07 03:00:21;;;;;;;20.73;5.72;;;;;;;-0.46;89.08;99713.78;5063706;28;20029;-63
2022/01/07 03:02:49;;;;;;;10.90;5.57;;;;;;;-0.42;88.90;99710.47;5063784;28;20060;-64
2022/01/07 03:05:14;;;;;;;7.78;2.60;;;;;;;-0.42;89.16;99706.25;5063939;28;20055;-64
2022/01/07 03:07:42;;;;;;;7.85;2.40;;;;;;;-0.46;89.57;99706.97;5063581;28;20493;-64
2022/01/07 03:10:09;;;;;;;7.43;3.40;;;;;;;-0.44;89.69;99701.91;5062362;28;20021;-64
2022/01/07 03:12:36;;;;;;;16.90;5.32;;;;;;;-0.33;89.42;99710.72;5063428;28;20032;-64
2022/01/07 03:15:06;;;;;;;6.82;3.65;;;;;;;-0.32;89.28;99702.22;5062532;28;20036;-64
2022/01/07 03:17:32;;;;;;;10.57;3.85;;;;;;;-0.36;89.68;99699.56;5063656;28;20061;-62
2022/01/07 03:19:57;;;;;;;7.32;3.50;;;;;;;-0.36;89.86;99704.66;5063547;28;20043;-63
2022/01/07 03:22:22;;;;;;;23.23;6.20;;;;;;;-0.40;90.04;99691.84;5063407;28;20028;-63
2022/01/07 03:24:48;;;;;;;8.73;3.25;;;;;;;-0.33;90.04;99687.75;5063667;28;20032;-62
2022/01/07 03:27:13;;;;;;;13.48;4.97;;;;;;;-0.26;89.82;99696.44;5063558;28;20356;-61
2022/01/07 03:29:38;;;;;;;12.32;4.15;;;;;;;-0.29;90.19;99697.19;5063433;28;20025;-62
2022/01/07 03:32:04;;;;;;;15.40;6.63;;;;;;;-0.27;90.49;99692.13;5063255;28;20060;-61
2022/01/07 03:34:30;;;;;;;17.23;4.18;;;;;;;-0.23;90.64;99682.88;5063336;28;20028;-62
2022/01/07 03:36:55;;;;;;;20.17;5.70;;;;;;;-0.17;90.40;99686.44;5062847;28;20057;-61
2022/01/07 03:39:21;;;;;;;13.38;4.95;;;;;;;-0.07;89.92;99679.00;5063579;28;20056;-62
2022/01/07 03:41:46;;;;;;;12.23;5.03;;;;;;;-0.09;90.26;99681.50;5063316;28;20036;-62
2022/01/07 03:44:11;;;;;;;14.50;4.47;;;;;;;0.01;89.96;99674.06;5063341;28;20028;-61
2022/01/07 03:46:37;;;;;;;6.82;3.17;;;;;;;-0.07;90.50;99676.44;5062157;28;20025;-61
2022/01/07 03:49:02;;;;;;;29.55;7.50;;;;;;;-0.16;90.77;99661.78;5063207;28;20028;-61
2022/01/07 03:51:28;;;;;;;17.83;5.35;;;;;;;-0.04;90.93;99664.63;5062181;28;20021;-60
2022/01/07 03:53:53;;;;;;;11.45;5.80;;;;;;;0.03;90.99;99665.63;5063066;28;20021;-60
2022/01/07 03:56:20;;;;;;;18.27;6.15;;;;;;;0.10;90.90;99657.28;5063252;28;20025;-60
2022/01/07 03:58:46;;;;;;;8.05;4.40;;;;;;;0.17;90.90;99649.75;5064038;28;20130;-60
2022/01/07 04:01:11;;;;;;;5.47;2.90;;;;;;;0.17;91.07;99642.09;5067214;28;20435;-60
2022/01/07 04:03:37;;;;;;;17.33;5.70;;;;;;;0.26;90.83;99644.00;5066970;28;20042;-61
2022/01/07 04:06:02;;;;;;;4.45;2.47;;;;;;;0.23;90.92;99637.97;5067311;28;20017;-62
2022/01/07 04:08:28;;;;;;;8.60;3.83;;;;;;;0.20;91.22;99647.25;5065503;28;20561;-60
2022/01/07 04:10:53;;;;;;;9.55;4.85;;;;;;;0.22;91.32;99638.78;5067046;28;20396;-61
2022/01/07 04:13:18;;;;;;;15.65;5.47;;;;;;;0.23;91.34;99637.97;5067084;28;20017;-60
2022/01/07 04:15:44;;;;;;;12.38;5.40;;;;;;;0.34;91.45;99635.66;5067036;28;20488;-61
2022/01/07 04:18:09;;;;;;;10.60;4.97;;;;;;;0.38;91.33;99625.50;5067085;28;20036;-61
2022/01/07 04:20:36;;;;;;;16.65;7.05;;;;;;;0.36;91.43;99625.47;5066963;28;20492;-61
2022/01/07 04:23:02;;;;;;;26.52;7.78;;;;;;;0.36;91.59;99623.78;5066678;28;20021;-62
2022/01/07 04:25:27;;;;;;;17.85;7.78;;;;;;;0.43;91.46;99621.34;5066852;28;20538;-61
2022/01/07 04:27:59;;;;;;;6.38;3.13;;;;;;;0.46;91.47;99616.31;5066622;28;20021;-63
2022/01/07 04:30:32;;;;;;;12.63;4.15;;;;;;;0.47;91.51;99611.22;5066977;28;20253;-60
2022/01/07 04:32:57;;;;;;;20.63;5.95;;;;;;;0.45;91.64;99607.78;5066715;28;20033;-60
2022/01/07 04:35:24;;;;;;;19.77;6.97;;;;;;;0.49;91.61;99603.59;5066608;28;20035;-60
2022/01/07 04:37:49;;;;;;;17.55;8.65;;;;;;;0.53;91.88;99599.41;5066081;28;20041;-60
2022/01/07 04:40:16;;;;;;;13.68;5.15;;;;;;;0.54;92.01;99601.13;5066746;28;20081;-60
2022/01/07 04:42:43;;;;;;;18.65;6.05;;;;;;;0.58;91.86;99597.78;5066298;28;20029;-60
2022/01/07 04:45:10;;;;;;;16.95;6.10;;;;;;;0.57;92.16;99593.53;5066526;28;20081;-60
2022/01/07 04:47:36;;;;;;;18.27;8.15;;;;;;;0.68;91.95;99586.06;5066238;28;20044;-60
2022/01/07 04:50:08;;;;;;;5.90;3.30;;;;;;;0.68;92.29;99586.94;5066353;28;20314;-60
2022/01/07 04:52:33;;;;;;;21.08;8.30;;;;;;;0.74;92.41;99584.50;5065884;28;20282;-60
2022/01/07 04:54:59;;;;;;;19.27;7.80;;;;;;;0.79;92.47;99587.13;5066246;28;20040;-60
2022/01/07 04:57:24;;;;;;;27.13;7.45;;;;;;;0.85;92.57;99565.91;5065666;28;20072;-60
2022/01/07 04:59:50;;;;;;;21.40;6.93;;;;;;;0.99;92.33;99576.41;5065935;28;20029;-60
2022/01/07 05:02:19;;;;;;;17.65;6.68;;;;;;;1.07;92.14;99572.25;5064449;28;20017;-60
2022/01/07 05:04:45;;;;;;;21.25;7.65;;;;;;;1.07;92.05;99566.31;5065878;28;20021;-60
2022/01/07 05:07:10;;;;;;;14.40;4.97;;;;;;;1.15;91.87;99564.72;5065309;28;20021;-60
2022/01/07 05:09:35;;;;;;;22.17;6.22;;;;;;;1.15;91.81;99559.59;5065273;28;20050;-60
2022/01/07 05:12:00;;;;;;;23.60;7.05;;;;;;;1.18;91.67;99566.50;5065488;28;20028;-60
2022/01/07 05:14:26;;;;;;;23.95;8.27;;;;;;;1.16;92.17;99557.91;5065681;28;20120;-60
2022/01/07 05:16:51;;;;;;;19.52;6.75;;;;;;;1.26;91.84;99562.38;5065596;28;20028;-60
2022/01/07 05:19:17;;;;;;;25.65;7.93;;;;;;;1.23;92.20;99547.81;5065616;28;20033;-61
2022/01/07 05:21:42;;;;;;;30.45;8.43;;;;;;;1.28;92.03;99547.88;5065107;28;20048;-60
2022/01/07 05:24:08;;;;;;;23.30;8.00;;;;;;;1.28;92.01;99539.38;5065448;28;20075;-60
2022/01/07 05:26:33;;;;;;;14.25;5.43;;;;;;;1.34;92.11;99539.47;5065425;28;20101;-60
2022/01/07 05:28:58;;;;;;;30.02;9.18;;;;;;;1.41;91.59;99536.16;5065306;28;20090;-60
2022/01/07 05:31:24;;;;;;;20.13;8.65;;;;;;;1.40;91.83;99542.13;5063859;28;20017;-60
2022/01/07 05:33:53;;;;;;;25.75;9.73;;;;;;;1.43;91.90;99528.50;5065246;28;20017;-60
2022/01/07 05:36:20;;;;;;;31.42;10.02;;;;;;;1.44;92.01;99527.66;5065090;28;20081;-60
2022/01/07 05:38:46;;;;;;;34.75;11.27;;;;;;;1.44;92.02;99531.06;5064603;28;20048;-60
2022/01/07 05:41:11;;;;;;;26.13;8.05;;;;;;;1.45;92.16;99522.56;5065051;28;20024;-59
2022/01/07 05:43:37;;;;;;;38.65;10.20;;;;;;;1.56;91.92;99529.53;5065090;28;20050;-59
2022/01/07 05:46:02;;;;;;;27.58;6.97;;;;;;;1.52;92.21;99518.41;5064954;28;20108;-60
2022/01/07 05:48:28;;;;;;;25.60;10.63;;;;;;;1.54;92.42;99515.84;5064812;28;20017;-60
2022/01/07 05:50:53;;;;;;;29.83;13.80;;;;;;;1.65;92.22;99513.44;5064850;28;20052;-60
2022/01/07 05:53:18;;;;;;;34.72;14.73;;;;;;;1.67;92.25;99517.75;5063193;28;20072;-61
2022/01/07 05:55:44;;;;;;;46.47;16.45;;;;;;;1.67;92.37;99504.09;5064820;28;20025;-61
2022/01/07 05:58:09;;;;;;;55.75;17.25;;;;;;;1.71;92.47;99511.00;5064570;28;20078;-61
2022/01/07 06:00:35;;;;;;;41.45;15.98;;;;;;;1.78;92.37;99499.13;5064704;28;20035;-61
2022/01/07 06:03:00;;;;;;;42.55;16.50;;;;;;;1.83;92.41;99503.47;5064524;28;20036;-60
2022/01/07 06:05:25;;;;;;;35.63;11.43;;;;;;;1.88;92.30;99500.09;5064779;28;20025;-60
2022/01/07 06:07:51;;;;;;;40.00;15.35;;;;;;;1.92;92.12;99496.72;5064295;28;20474;-60
2022/01/07 06:10:16;;;;;;;50.42;17.90;;;;;;;1.92;91.82;99489.91;5064630;28;20512;-61
2022/01/07 06:12:41;;;;;;;55.58;18.55;;;;;;;1.90;92.16;99495.88;5064143;28;20021;-61
2022/01/07 06:15:08;;;;;;;37.33;14.18;;;;;;;1.85;92.41;99491.53;5064749;28;20098;-62
2022/01/07 06:17:33;;;;;;;40.58;14.85;;;;;;;1.94;92.02;99484.81;5064233;28;20063;-61
2022/01/07 06:19:58;;;;;;;51.65;17.60;;;;;;;1.92;92.29;99481.38;5064425;28;20028;-61
2022/01/07 06:22:24;;;;;;;51.75;17.00;;;;;;;1.93;92.51;99478.81;5063116;28;20108;-60
2022/01/07 06:24:49;;;;;;;55.67;18.95;;;;;;;1.98;92.03;99472.06;5064368;28;20025;-61
2022/01/07 06:27:14;;;;;;;52.20;20.52;;;;;;;1.91;92.78;99465.16;5064316;28;20028;-61
2022/01/07 06:29:40;;;;;;;44.72;17.23;;;;;;;1.97;92.60;99457.56;5064404;28;20428;-61
2022/01/07 06:32:06;;;;;;;49.42;16.52;;;;;;;1.88;93.19;99457.44;5064016;28;20032;-62
2022/01/07 06:34:31;;;;;;;51.90;17.90;;;;;;;1.91;93.22;99457.50;5064055;28;20465;-63
2022/01/07 06:36:59;;;;;;;65.20;20.50;;;;;;;1.92;93.05;99455.75;5063287;28;20057;-65
2022/01/07 06:39:24;;;;;;;54.97;20.70;;;;;;;1.89;93.31;99458.28;5063621;28;20040;-63
2022/01/07 06:41:51;;;;;;;41.50;15.15;;;;;;;1.93;93.22;99452.38;5064146;28;20025;-64
2022/01/07 06:44:17;;;;;;;44.25;17.67;;;;;;;1.88;93.48;99444.66;5064089;28;20083;-63
2022/01/07 06:46:43;;;;;;;46.30;17.17;;;;;;;1.92;93.34;99443.84;5064035;28;20287;-64
2022/01/07 06:49:08;;;;;;;57.33;21.92;;;;;;;1.91;93.46;99448.94;5063687;28;20043;-64
2022/01/07 06:51:34;;;;;;;58.15;21.25;;;;;;;1.90;93.56;99442.94;5063571;28;20025;-66
2022/01/07 06:53:59;;;;;;;44.25;16.52;;;;;;;1.94;93.46;99444.72;5063604;28;20025;-64
2022/01/07 06:56:25;;;;;;;38.92;15.93;;;;;;;1.90;93.62;99440.38;5063990;28;20128;-64
2022/01/07 06:58:50;;;;;;;57.45;22.00;;;;;;;1.93;93.52;99444.69;5063861;28;20182;-64
2022/01/07 07:01:16;;;;;;;60.95;20.90;;;;;;;1.91;93.67;99446.38;5063888;28;20025;-64
2022/01/07 07:03:41;;;;;;;50.28;20.42;;;;;;;1.97;93.12;99439.63;5063718;28;20032;-64
2022/01/07 07:06:08;;;;;;;43.83;15.93;;;;;;;1.88;93.51;99443.78;5063691;28;20415;-64
2022/01/07 07:08:33;;;;;;;54.83;19.02;;;;;;;1.84;93.73;99442.88;5063328;28;20017;-64
2022/01/07 07:10:58;;;;;;;47.72;20.05;;;;;;;1.86;93.38;99441.22;5063437;28;20074;-64
2022/01/07 07:13:24;;;;;;;54.45;19.33;;;;;;;1.85;93.17;99435.22;5062092;28;20056;-63
2022/01/07 07:15:49;;;;;;;57.85;22.25;;;;;;;1.79;93.27;99437.72;5063627;28;20017;-63
2022/01/07 07:18:15;;;;;;;48.63;15.63;;;;;;;1.79;93.32;99436.88;5063458;28;20027;-64
2022/01/07 07:20:40;;;;;;;37.47;14.40;;;;;;;1.72;93.54;99434.25;5063515;28;20032;-63
2022/01/07 07:23:05;;;;;;;24.90;9.95;;;;;;;1.67;93.53;99438.44;5063209;28;20053;-63
2022/01/07 07:25:31;;;;;;;61.13;19.52;;;;;;;1.66;93.49;99438.41;5063467;28;20412;-63
2022/01/07 07:27:56;;;;;;;49.38;18.15;;;;;;;1.64;93.51;99433.28;5063228;28;20496;-64
2022/01/07 07:30:23;;;;;;;20.60;9.20;;;;;;;1.70;93.50;99427.38;5063603;28;20025;-64
2022/01/07 07:32:51;;;;;;;46.38;16.15;;;;;;;1.61;93.36;99426.41;5063267;28;20480;-63
2022/01/07 07:37:44;;;;;;;42.17;19.30;;;;;;;1.52;93.62;99420.34;5062739;28;20041;-62
2022/01/07 07:40:10;;;;;;;58.10;18.67;;;;;;;1.51;93.71;99424.59;5063366;28;20061;-63
2022/01/07 07:42:35;;;;;;;51.83;17.67;;;;;;;1.48;93.60;99427.09;5063289;28;20028;-64
2022/01/07 07:45:00;;;;;;;36.80;14.77;;;;;;;1.44;93.96;99431.31;5063265;28;20052;-63
2022/01/07 07:47:28;;;;;;;38.63;16.67;;;;;;;1.42;93.35;99420.19;5062892;28;20475;-63
2022/01/07 07:49:53;;;;;;;39.60;16.40;;;;;;;1.33;93.49;99417.53;5063038;28;20108;-63
2022/01/07 07:52:18;;;;;;;26.48;10.07;;;;;;;1.42;93.16;99422.75;5062786;28;20036;-62
2022/01/07 07:54:44;;;;;;;0.50;0.50;;;;;;;1.20;93.38;99406.25;5063213;28;20392;-63
2022/01/07 07:57:09;;;;;;;0.40;0.40;;;;;;;1.18;93.57;99424.16;5062887;28;20440;-63
2022/01/07 07:59:34;;;;;;;0.40;0.40;;;;;;;1.16;93.87;99419.84;5061696;28;20032;-64
2022/01/07 08:02:01;;;;;;;0.50;0.50;;;;;;;1.19;93.63;99415.66;5062978;28;20031;-63
2022/01/07 08:04:27;;;;;;;0.40;0.40;;;;;;;1.08;93.92;99406.97;5062930;28;20017;-63
2022/01/07 08:06:52;;;;;;;0.40;0.40;;;;;;;1.12;93.91;99408.72;5062750;28;20021;-63
2022/01/07 08:09:18;;;;;;;0.40;0.40;;;;;;;1.06;94.06;99403.53;5062772;28;20028;-64
2022/01/07 08:11:57;;;;;;;0.45;0.45;;;;;;;1.12;93.96;99395.94;5062970;28;20048;-63
2022/01/07 08:17:08;;;;;;;0.52;0.52;;;;;;;1.12;93.98;99406.16;5062866;28;20416;-63
2022/01/07 08:19:34;;;;;;;0.40;0.40;;;;;;;1.07;94.03;99402.72;5062750;28;20021;-63
2022/01/07 08:22:00;;;;;;;0.40;0.40;;;;;;;1.07;94.09;99412.94;5062458;28;20029;-63
2022/01/07 08:24:25;;;;;;;0.40;0.40;;;;;;;1.08;93.94;99410.41;5062670;28;20029;-63
2022/01/07 08:26:51;;;;;;;0.40;0.40;;;;;;;1.04;94.03;99407.78;5062278;28;20021;-64
2022/01/07 08:29:17;;;;;;;0.40;0.40;;;;;;;0.98;94.59;99406.84;5062446;28;20039;-63
2022/01/07 08:36:52;;;;;;;0.40;0.40;;;;;;;0.90;94.47;99403.31;5062283;28;20036;-65
2022/01/07 08:39:17;;;;;;;0.45;0.45;;;;;;;0.86;94.46;99399.84;5062511;28;20452;-64
2022/01/07 08:41:43;;;;;;;0.65;0.65;;;;;;;0.87;94.50;99393.03;5062404;28;20484;-63
2022/01/07 08:44:11;;;;;;;0.40;0.40;;;;;;;0.85;94.51;99398.13;5062591;28;20048;-63
2022/01/07 08:46:36;;;;;;;0.50;0.50;;;;;;;0.81;94.57;99398.94;5066092;28;20028;-63
2022/01/07 08:49:03;;;;;;;0.57;0.57;;;;;;;0.81;94.57;99396.38;5065848;28;20473;-63
2022/01/07 08:51:29;;;;;;;0.50;0.50;;;;;;;0.79;94.52;99389.50;5066051;28;21000;-63
2022/01/07 08:53:55;;;;;;;0.40;0.40;;;;;;;0.73;94.56;99386.03;5065766;28;20025;-63
2022/01/07 08:56:23;;;;;;;0.40;0.40;;;;;;;0.70;94.99;99387.69;5066138;28;20025;-64
2022/01/07 08:58:56;;;;;;;0.40;0.40;;;;;;;0.74;94.84;99390.31;5065842;28;20032;-63
2022/01/07 09:01:24;;;;;;;0.40;0.40;;;;;;;0.75;94.90;99388.63;5065732;28;20021;-63
2022/01/07 09:03:49;;;;;;;0.40;0.40;;;;;;;0.74;94.82;99390.31;5065657;28;20079;-67
2022/01/07 09:06:15;;;;;;;0.40;0.40;;;;;;;0.72;94.94;99386.84;5065930;28;20021;-64
2022/01/07 09:08:40;;;;;;;0.40;0.40;;;;;;;0.74;94.82;99380.09;5065678;28;20017;-63
2022/01/07 09:11:06;;;;;;;0.40;0.40;;;;;;;0.70;94.79;99377.47;5064419;28;20209;-63
2022/01/07 09:13:31;;;;;;;0.70;0.70;;;;;;;0.65;95.07;99379.09;5065311;28;20037;-63
2022/01/07 09:15:57;;;;;;;0.47;0.47;;;;;;;0.69;94.75;99389.38;5065517;28;20029;-64
2022/01/07 09:18:22;;;;;;;0.50;0.50;;;;;;;0.67;94.70;99380.81;5065481;28;20361;-65
2022/01/07 09:20:48;;;;;;;0.40;0.40;;;;;;;0.68;94.66;99391.91;5065640;28;20033;-64
2022/01/07 09:23:14;;;;;;;0.60;0.60;;;;;;;0.64;95.05;99383.31;5065035;28;20039;-65
2022/01/07 09:25:39;;;;;;;0.50;0.50;;;;;;;0.70;94.66;99382.56;5065409;28;20400;-66
2022/01/07 09:28:06;;;;;;;0.40;0.40;;;;;;;0.68;94.66;99377.44;5065363;28;20016;-65
2022/01/07 09:30:33;;;;;;;0.88;0.88;;;;;;;0.59;94.91;99374.75;5065057;28;20025;-63
2022/01/07 09:32:59;;;;;;;0.40;0.40;;;;;;;0.60;94.86;99372.22;5065215;28;20029;-64
2022/01/07 09:35:24;;;;;;;0.88;0.88;;;;;;;0.60;95.10;99376.47;5065196;28;20067;-65
2022/01/07 09:37:50;;;;;;;0.47;0.47;;;;;;;0.61;94.87;99367.94;5064612;28;20033;-65
2022/01/07 09:40:17;;;;;;;0.43;0.43;;;;;;;0.60;95.25;99368.78;5065139;28;20025;-64
2022/01/07 09:43:06;;;;;;;2.90;2.60;;;;;;;0.69;95.02;99366.38;5065040;28;20035;-63
2022/01/07 09:45:34;;;;;;;0.45;0.45;;;;;;;0.66;95.47;99361.22;5065002;28;20099;-65
2022/01/07 09:48:01;;;;;;;0.40;0.40;;;;;;;0.69;95.48;99368.06;5064785;28;20116;-65
2022/01/07 09:50:29;;;;;;;0.50;0.50;;;;;;;0.68;95.67;99363.78;5065175;28;20053;-64
2022/01/07 09:52:55;;;;;;;0.50;0.50;;;;;;;0.73;95.58;99362.19;5064535;28;20028;-64
2022/01/07 09:55:20;;;;;;;0.50;0.50;;;;;;;0.74;95.47;99353.66;5064863;28;20021;-64
2022/01/07 09:57:46;;;;;;;0.50;0.50;;;;;;;0.70;95.45;99357.88;5064891;28;20100;-65
2022/01/07 10:00:12;;;;;;;0.43;0.43;;;;;;;0.69;95.59;99358.72;5064782;28;20021;-64
2022/01/07 10:02:57;;;;;;;0.50;0.50;;;;;;;0.71;95.74;99359.59;5064621;28;20025;-65
2022/01/07 10:05:22;;;;;;;0.45;0.45;;;;;;;0.69;95.84;99345.94;5064708;28;20380;-65
2022/01/07 10:07:48;;;;;;;0.40;0.40;;;;;;;0.68;95.86;99348.47;5064440;28;20564;-65
2022/01/07 10:10:17;;;;;;;0.50;0.50;;;;;;;0.70;95.80;99351.91;5064528;28;20063;-66
2022/01/07 10:13:04;;;;;;;0.40;0.40;;;;;;;0.72;95.81;99351.09;5064080;28;20071;-65
2022/01/07 10:15:34;;;;;;;0.40;0.40;;;;;;;0.71;95.82;99351.94;5064299;28;20337;-63
2022/01/07 10:17:59;;;;;;;0.40;0.40;;;;;;;0.70;95.88;99347.66;5064261;28;20021;-64
2022/01/07 10:20:31;;;;;;;0.50;0.50;;;;;;;0.69;95.55;99345.94;5064463;28;20021;-64
2022/01/07 10:23:00;;;;;;;0.50;0.50;;;;;;;0.66;95.63;99339.91;5064108;28;20104;-65
2022/01/07 10:25:27;;;;;;;0.50;0.50;;;;;;;0.59;95.55;99337.28;5063934;28;20051;-64
2022/01/07 10:28:03;;;;;;;0.40;0.40;;;;;;;0.55;95.68;99344.88;5063887;28;20055;-64
2022/01/07 10:30:52;;;;;;;0.40;0.40;;;;;;;0.55;95.61;99337.19;5056038;22;20057;-72
2022/01/07 10:33:26;;;;;;;0.50;0.50;;;;;;;0.48;95.56;99344.78;5063865;28;20067;-71
2022/01/07 10:35:57;;;;;;;0.50;0.50;;;;;;;0.46;95.65;99345.59;5064100;28;20044;-71
2022/01/07 10:38:28;;;;;;;0.60;0.60;;;;;;;0.39;95.79;99331.88;5063915;28;20021;-71
2022/01/07 10:40:59;;;;;;;0.60;0.60;;;;;;;0.44;95.56;99335.34;5064015;28;20039;-71
2022/01/07 10:43:32;;;;;;;0.50;0.50;;;;;;;0.44;95.15;99339.59;5045631;28;20020;-66
2022/01/07 10:45:59;;;;;;;0.40;0.40;;;;;;;0.39;95.28;99325.88;5063702;28;20124;-74
2022/01/07 10:48:40;;;;;;;0.40;0.40;;;;;;;0.41;95.28;99327.66;5045690;28;20389;-73
2022/01/07 10:51:11;;;;;;;0.57;0.57;;;;;;;0.41;95.49;99324.22;5046064;28;20064;-73
2022/01/07 10:53:40;;;;;;;0.93;0.93;;;;;;;0.38;95.67;99326.75;5045560;28;20258;-73
2022/01/07 10:56:10;;;;;;;0.40;0.40;;;;;;;0.44;95.48;99332.81;5063466;28;20687;-73
2022/01/07 10:58:55;;;;;;;0.40;0.40;;;;;;;0.33;95.92;99334.31;5045690;28;20142;-73
2022/01/07 11:01:21;;;;;;;0.65;0.65;;;;;;;0.40;96.16;99331.03;5063414;28;20033;-72
2022/01/07 11:03:51;;;;;;;1.10;1.10;;;;;;;0.37;96.01;99333.53;5063571;28;20095;-74
2022/01/07 11:06:17;;;;;;;0.50;0.50;;;;;;;0.43;95.81;99333.63;5063677;28;20032;-74
2022/01/07 11:08:44;;;;;;;0.50;0.50;;;;;;;0.34;95.64;99324.13;5045147;28;20020;-72
2022/01/07 11:11:11;;;;;;;0.40;0.40;;;;;;;0.33;95.95;99321.56;5063717;28;20021;-75
2022/01/07 11:13:37;;;;;;;0.50;0.50;;;;;;;0.34;96.06;99319.03;5045470;28;20032;-71
2022/01/07 11:16:03;;;;;;;0.40;0.40;;;;;;;0.40;96.00;99325.91;5063543;28;20027;-72
2022/01/07 11:18:28;;;;;;;0.40;0.40;;;;;;;0.37;96.07;99320.75;5063193;28;20024;-74
2022/01/07 11:20:58;;;;;;;0.50;0.50;;;;;;;0.39;96.25;99321.66;5063478;28;20033;-72
2022/01/07 11:23:28;;;;;;;0.40;0.40;;;;;;;0.38;96.30;99325.06;5063362;28;20032;-73
2022/01/07 11:26:02;;;;;;;0.40;0.40;;;;;;;0.41;95.97;99324.22;5063466;28;20021;-72
2022/01/07 11:28:28;;;;;;;0.40;0.40;;;;;;;0.34;96.10;99318.16;5045170;28;20045;-73
2022/01/07 11:31:04;;;;;;;0.40;0.40;;;;;;;0.39;96.55;99318.22;5062932;28;20102;-73
2022/01/07 11:33:30;;;;;;;0.40;0.40;;;;;;;0.40;96.15;99315.69;5063472;28;20025;-74
2022/01/07 11:35:56;;;;;;;0.40;0.40;;;;;;;0.43;96.22;99320.00;5045358;28;20416;-71
2022/01/07 11:38:37;;;;;;;0.50;0.50;;;;;;;0.44;96.28;99320.03;5061946;28;20159;-73
2022/01/07 11:41:04;;;;;;;0.40;0.40;;;;;;;0.41;96.57;99314.88;5063448;28;20029;-72